Time;durP1;ratioP1;P1;durP2;ratioP2;P2;SDS_P1;SDS_P2;PMS_P1;PMS_P2;Temp;Humidity;BMP_temperature;BMP_pressure;BME280_temperature;BME280_humidity;BME280_pressure;Samples;Min_cycle;Max_cycle;Signal;HPM_P1;HPM_P2
2022/10/07 00:01:03;;;;;;;;;;;;;;;-142.75;100.00;78176.88;5072752;28;19917;-68
2022/10/07 00:03:29;;;;;;;;;;;;;;;-142.75;100.00;78172.94;5072715;28;19919;-67
2022/10/07 00:05:58;;;;;;;;;;;;;;;-142.75;100.00;78180.81;5071375;28;20381;-68
2022/10/07 00:08:23;;;;;;;;;;;;;;;-142.75;100.00;78161.13;5072308;28;20023;-68
2022/10/07 00:10:48;;;;;;;;;;;;;;;-142.75;100.00;78178.84;5072604;28;19959;-67
2022/10/07 00:13:13;;;;;;;;;;;;;;;-142.75;100.00;78172.94;5072826;28;19916;-68
2022/10/07 00:15:38;;;;;;;;;;;;;;;-142.75;100.00;78182.81;5072588;28;19961;-68
2022/10/07 00:18:04;;;;;;;;;;;;;;;-142.75;100.00;78176.88;5072188;28;19916;-68
2022/10/07 00:20:29;;;;;;;;;;;;;;;-142.75;100.00;78174.91;5072285;28;19995;-68
2022/10/07 00:22:54;;;;;;;;;;;;;;;-142.75;100.00;78174.91;5072481;28;19919;-68
2022/10/07 00:25:20;;;;;;;;;;;;;;;-142.75;100.00;78169.00;5071126;28;19938;-68
2022/10/07 00:27:45;;;;;;;;;;;;;;;-142.75;100.00;78178.84;5072239;28;19917;-67
2022/10/07 00:30:11;;;;;;;;;;;;;;;-142.75;100.00;78170.97;5071428;28;19970;-67
2022/10/07 00:32:36;;;;;;;;;;;;;;;-142.75;100.00;78170.97;5072338;28;19912;-68
2022/10/07 00:35:01;;;;;;;;;;;;;;;-142.75;100.00;78176.88;5072410;28;19912;-67
2022/10/07 00:37:27;;;;;;;;;;;;;;;-142.75;100.00;78169.00;5071931;28;19919;-67
2022/10/07 00:39:52;;;;;;;;;;;;;;;-142.75;100.00;78172.94;5072362;28;20375;-68
2022/10/07 00:42:17;;;;;;;;;;;;;;;-142.75;100.00;78165.06;5071397;28;19955;-68
2022/10/07 00:44:44;;;;;;;;;;;;;;;-142.75;100.00;78169.00;5072357;28;19934;-68
2022/10/07 00:47:16;;;;;;;;;;;;;;;-142.75;100.00;78176.88;5071874;28;19920;-68
2022/10/07 00:49:47;;;;;;;;;;;;;;;-142.75;100.00;78174.91;5070787;28;20293;-68
2022/10/07 00:52:13;;;;;;;;;;;;;;;-142.75;100.00;78170.97;5072181;28;20337;-68
2022/10/07 00:54:39;;;;;;;;;;;;;;;-142.75;100.00;78180.81;5070969;28;19958;-68
2022/10/07 00:57:04;;;;;;;;;;;;;;;-142.75;100.00;78176.88;5071911;28;19920;-67
2022/10/07 00:59:30;;;;;;;;;;;;;;;-142.75;100.00;78176.88;5072151;28;20286;-67
2022/10/07 01:01:55;;;;;;;;;;;;;;;-142.75;100.00;78180.81;5071818;28;20011;-67
2022/10/07 01:04:20;;;;;;;;;;;;;;;-142.75;100.00;78172.94;5071936;28;19912;-68
2022/10/07 01:06:45;;;;;;;;;;;;;;;-142.75;100.00;78163.09;5070508;28;19913;-67
2022/10/07 01:09:11;;;;;;;;;;;;;;;-142.75;100.00;78149.31;5071877;28;19916;-68
2022/10/07 01:11:42;;;;;;;;;;;;;;;-142.75;100.00;78149.31;5070641;28;19935;-68
2022/10/07 01:14:11;;;;;;;;;;;;;;;-142.75;100.00;78157.19;5070659;28;19912;-68
2022/10/07 01:16:54;;;;;;;;;;;;;;;-142.75;100.00;78151.28;5071614;28;20271;-67
2022/10/07 01:19:35;;;;;;;;;;;;;;;-142.75;100.00;78153.25;5072050;28;19912;-67
2022/10/07 01:22:16;;;;;;;;;;;;;;;-142.75;100.00;78139.47;5070537;28;19912;-68
2022/10/07 01:24:46;;;;;;;;;;;;;;;-142.75;100.00;78143.41;5072113;28;20381;-67
2022/10/07 01:27:11;;;;;;;;;;;;;;;-142.75;100.00;78133.56;5071587;28;20041;-67
2022/10/07 01:29:36;;;;;;;;;;;;;;;-142.75;100.00;78145.38;5071854;28;20018;-68
2022/10/07 01:32:05;;;;;;;;;;;;;;;-142.75;100.00;78123.72;5071750;28;19912;-67
2022/10/07 01:34:33;;;;;;;;;;;;;;;-142.75;100.00;78111.91;5071709;28;20000;-68
2022/10/07 01:37:00;;;;;;;;;;;;;;;-142.75;100.00;78117.81;5071573;28;19920;-67
2022/10/07 01:39:28;;;;;;;;;;;;;;;-142.75;100.00;78117.81;5071787;28;19952;-67
2022/10/07 01:41:53;;;;;;;;;;;;;;;-142.75;100.00;78121.75;5071707;28;19912;-66
2022/10/07 01:44:18;;;;;;;;;;;;;;;-142.75;100.00;78102.06;5071673;28;19919;-67
2022/10/07 01:46:43;;;;;;;;;;;;;;;-142.75;100.00;78106.00;5070021;28;19916;-67
2022/10/07 01:49:09;;;;;;;;;;;;;;;-142.75;100.00;78117.81;5070330;28;19964;-67
2022/10/07 01:51:36;;;;;;;;;;;;;;;-142.75;100.00;78121.75;5070273;28;20405;-68
2022/10/07 01:54:04;;;;;;;;;;;;;;;-142.75;100.00;78119.78;5074165;28;20340;-68
2022/10/07 01:56:37;;;;;;;;;;;;;;;-142.75;100.00;78129.63;5075013;28;19912;-67
2022/10/07 01:59:11;;;;;;;;;;;;;;;-142.75;100.00;78125.69;5075233;28;20365;-67
2022/10/07 02:01:58;;;;;;;;;;;;;;;-142.75;100.00;78123.72;5074832;28;20374;-68
2022/10/07 02:04:26;;;;;;;;;;;;;;;-142.75;100.00;78109.94;5075074;28;19919;-67
2022/10/07 02:06:51;;;;;;;;;;;;;;;-142.75;100.00;78119.78;5074635;28;19948;-67
2022/10/07 02:09:22;;;;;;;;;;;;;;;-142.75;100.00;78109.94;5074895;28;19994;-68
2022/10/07 02:11:51;;;;;;;;;;;;;;;-142.75;100.00;78113.88;5073555;28;20026;-67
2022/10/07 02:14:19;;;;;;;;;;;;;;;-142.75;100.00;78121.75;5074811;28;20390;-68
2022/10/07 02:16:55;;;;;;;;;;;;;;;-142.75;100.00;78121.75;5074435;28;19931;-68
2022/10/07 02:19:25;;;;;;;;;;;;;;;-142.75;100.00;78123.72;5074641;28;19912;-68
2022/10/07 02:21:52;;;;;;;;;;;;;;;-142.75;100.00;78127.66;5074593;28;19940;-68
2022/10/07 02:24:20;;;;;;;;;;;;;;;-142.75;100.00;78117.81;5074633;28;19913;-68
2022/10/07 02:26:46;;;;;;;;;;;;;;;-142.75;100.00;78111.91;5074273;28;19983;-68
2022/10/07 02:29:13;;;;;;;;;;;;;;;-142.75;100.00;78113.88;5074517;28;19920;-67
2022/10/07 02:31:40;;;;;;;;;;;;;;;-142.75;100.00;78115.84;5073236;28;19912;-67
2022/10/07 02:34:06;;;;;;;;;;;;;;;-142.75;100.00;78109.94;5074452;28;19912;-67
2022/10/07 02:36:34;;;;;;;;;;;;;;;-142.75;100.00;78111.91;5072978;28;20463;-67
2022/10/07 02:39:00;;;;;;;;;;;;;;;-142.75;100.00;78113.88;5074239;28;19963;-68
2022/10/07 02:41:31;;;;;;;;;;;;;;;-142.75;100.00;78102.06;5074214;28;19959;-68
2022/10/07 02:44:17;;;;;;;;;;;;;;;-142.75;100.00;78096.16;5074239;28;19916;-67
2022/10/07 02:46:50;;;;;;;;;;;;;;;-142.75;100.00;78092.22;5073495;28;19913;-67
2022/10/07 02:49:17;;;;;;;;;;;;;;;-142.75;100.00;78102.06;5074103;28;19923;-68
2022/10/07 02:52:04;;;;;;;;;;;;;;;-142.75;100.00;78088.28;5074006;28;20008;-68
2022/10/07 02:54:31;;;;;;;;;;;;;;;-142.75;100.00;78094.19;5073987;28;19912;-68
2022/10/07 02:56:57;;;;;;;;;;;;;;;-142.75;100.00;78088.28;5073654;28;19998;-67
2022/10/07 02:59:23;;;;;;;;;;;;;;;-142.75;100.00;78094.19;5072646;28;19919;-68
2022/10/07 03:01:52;;;;;;;;;;;;;;;-142.75;100.00;78098.13;5074879;28;20455;-68
2022/10/07 03:04:18;;;;;;;;;;;;;;;-142.75;100.00;78098.13;5073151;28;20400;-67
2022/10/07 03:06:43;;;;;;;;;;;;;;;-142.75;100.00;78098.13;5073520;28;20003;-67
2022/10/07 03:09:09;;;;;;;;;;;;;;;-142.75;100.00;78090.25;5073681;28;20011;-68
2022/10/07 03:11:36;;;;;;;;;;;;;;;-142.75;100.00;78088.28;5073598;28;19973;-67
2022/10/07 03:14:03;;;;;;;;;;;;;;;-142.75;100.00;78090.25;5073856;28;19918;-66
2022/10/07 03:16:28;;;;;;;;;;;;;;;-142.75;100.00;78102.06;5073539;28;19966;-67
2022/10/07 03:18:53;;;;;;;;;;;;;;;-142.75;100.00;78094.19;5073179;28;19921;-67
2022/10/07 03:21:18;;;;;;;;;;;;;;;-142.75;100.00;78098.13;5073507;28;19913;-68
2022/10/07 03:23:43;;;;;;;;;;;;;;;-142.75;100.00;78098.13;5073432;28;20364;-68
2022/10/07 03:26:09;;;;;;;;;;;;;;;-142.75;100.00;78102.06;5073365;28;20015;-67
2022/10/07 03:28:36;;;;;;;;;;;;;;;-142.75;100.00;78096.16;5072999;28;19924;-68
2022/10/07 03:31:05;;;;;;;;;;;;;;;-142.75;100.00;78107.97;5071990;28;20387;-67
2022/10/07 03:33:31;;;;;;;;;;;;;;;-142.75;100.00;78107.97;5071998;28;19913;-68
2022/10/07 03:35:56;;;;;;;;;;;;;;;-142.75;100.00;78111.91;5073288;28;19913;-68
2022/10/07 03:38:21;;;;;;;;;;;;;;;-142.75;100.00;78117.81;5072825;28;19919;-67
2022/10/07 03:40:46;;;;;;;;;;;;;;;-142.75;100.00;78117.81;5071816;28;19919;-67
2022/10/07 03:43:12;;;;;;;;;;;;;;;-142.75;100.00;78121.75;5073121;28;20014;-67
2022/10/07 03:45:44;;;;;;;;;;;;;;;-142.75;100.00;78119.78;5073060;28;19940;-67
2022/10/07 03:48:09;;;;;;;;;;;;;;;-142.75;100.00;78125.69;5072702;28;19917;-67
2022/10/07 03:50:35;;;;;;;;;;;;;;;-142.75;100.00;78113.88;5071591;28;20365;-67
2022/10/07 03:53:00;;;;;;;;;;;;;;;-142.75;100.00;78119.78;5072878;28;20294;-67
2022/10/07 03:55:25;;;;;;;;;;;;;;;-142.75;100.00;78121.75;5072843;28;19916;-67
2022/10/07 03:57:52;;;;;;;;;;;;;;;-142.75;100.00;78127.66;5072501;28;19912;-68
2022/10/07 04:00:19;;;;;;;;;;;;;;;-142.75;100.00;78125.69;5071478;28;19913;-67
2022/10/07 04:02:44;;;;;;;;;;;;;;;-142.75;100.00;78117.81;5072510;28;19921;-67
2022/10/07 04:05:10;;;;;;;;;;;;;;;-142.75;100.00;78117.81;5072741;28;19943;-67
2022/10/07 04:07:35;;;;;;;;;;;;;;;-142.75;100.00;78121.75;5072210;28;20298;-67
2022/10/07 04:10:00;;;;;;;;;;;;;;;-142.75;100.00;78106.00;5071396;28;20389;-67
2022/10/07 04:12:25;;;;;;;;;;;;;;;-142.75;100.00;78117.81;5072581;28;19913;-67
2022/10/07 04:14:51;;;;;;;;;;;;;;;-142.75;100.00;78133.56;5072592;28;19957;-67
2022/10/07 04:17:17;;;;;;;;;;;;;;;-142.75;100.00;78121.75;5072247;28;20370;-67
2022/10/07 04:19:43;;;;;;;;;;;;;;;-142.75;100.00;78125.69;5071239;28;19916;-68
2022/10/07 04:22:08;;;;;;;;;;;;;;;-142.75;100.00;78129.63;5072372;28;19918;-68
2022/10/07 04:24:33;;;;;;;;;;;;;;;-142.75;100.00;78113.88;5072389;28;19916;-67
2022/10/07 04:26:58;;;;;;;;;;;;;;;-142.75;100.00;78109.94;5072164;28;19989;-67
2022/10/07 04:29:23;;;;;;;;;;;;;;;-142.75;100.00;78117.81;5071067;28;20034;-67
2022/10/07 04:31:49;;;;;;;;;;;;;;;-142.75;100.00;78117.81;5072312;28;19913;-68
2022/10/07 04:34:14;;;;;;;;;;;;;;;-142.75;100.00;78109.94;5072344;28;19939;-68
2022/10/07 04:36:39;;;;;;;;;;;;;;;-142.75;100.00;78109.94;5070674;28;19919;-67
2022/10/07 04:39:04;;;;;;;;;;;;;;;-142.75;100.00;78102.06;5072256;28;19958;-68
2022/10/07 04:41:29;;;;;;;;;;;;;;;-142.75;100.00;78100.09;5072133;28;19913;-67
2022/10/07 04:43:55;;;;;;;;;;;;;;;-142.75;100.00;78113.88;5072287;28;19957;-68
2022/10/07 04:46:20;;;;;;;;;;;;;;;-142.75;100.00;78090.25;5070932;28;20286;-68
2022/10/07 04:48:45;;;;;;;;;;;;;;;-142.75;100.00;78096.16;5070563;28;19917;-67
2022/10/07 04:51:11;;;;;;;;;;;;;;;-142.75;100.00;78094.19;5071191;28;19912;-67
2022/10/07 04:53:37;;;;;;;;;;;;;;;-142.75;100.00;78094.19;5060404;28;19923;-67
2022/10/07 04:56:02;;;;;;;;;;;;;;;-142.75;100.00;78086.31;5062905;28;20437;-68
2022/10/07 04:58:28;;;;;;;;;;;;;;;-142.75;100.00;78094.19;5071329;28;19912;-67
2022/10/07 05:00:54;;;;;;;;;;;;;;;-142.75;100.00;78082.38;5069334;28;20019;-67
2022/10/07 05:03:20;;;;;;;;;;;;;;;-142.75;100.00;78078.44;5072039;28;20369;-68
2022/10/07 05:05:46;;;;;;;;;;;;;;;-142.75;100.00;78080.41;5072096;28;19912;-67
2022/10/07 05:08:13;;;;;;;;;;;;;;;-142.75;100.00;78080.41;5071607;28;19920;-67
2022/10/07 05:10:38;;;;;;;;;;;;;;;-142.75;100.00;78070.56;5071968;28;19919;-67
2022/10/07 05:13:04;;;;;;;;;;;;;;;-142.75;100.00;78058.72;5071991;28;19917;-68
2022/10/07 05:15:30;;;;;;;;;;;;;;;-142.75;100.00;78058.72;5070689;28;19913;-67
2022/10/07 05:17:55;;;;;;;;;;;;;;;-142.75;100.00;78046.91;5071585;28;20350;-66
2022/10/07 05:20:20;;;;;;;;;;;;;;;-142.75;100.00;78046.91;5071863;28;20022;-67
2022/10/07 05:22:46;;;;;;;;;;;;;;;-142.75;100.00;78031.16;5071759;28;19916;-67
2022/10/07 05:25:11;;;;;;;;;;;;;;;-142.75;100.00;78031.16;5071878;28;19995;-68
2022/10/07 05:27:36;;;;;;;;;;;;;;;-142.75;100.00;78025.25;5072046;28;19912;-68
2022/10/07 05:30:01;;;;;;;;;;;;;;;-142.75;100.00;78017.38;5075949;28;19916;-68
2022/10/07 05:32:26;;;;;;;;;;;;;;;-142.75;100.00;78009.50;5075752;28;19913;-68
2022/10/07 05:34:52;;;;;;;;;;;;;;;-142.75;100.00;78011.47;5075867;28;19913;-68
2022/10/07 05:37:17;;;;;;;;;;;;;;;-142.75;100.00;78003.59;5075171;28;19916;-67
2022/10/07 05:39:42;;;;;;;;;;;;;;;-142.75;100.00;78005.56;5075614;28;19920;-67
2022/10/07 05:42:08;;;;;;;;;;;;;;;-142.75;100.00;77997.69;5074033;28;19920;-68
2022/10/07 05:44:33;;;;;;;;;;;;;;;-142.75;100.00;77999.66;5075453;28;19920;-68
2022/10/07 05:46:58;;;;;;;;;;;;;;;-142.75;100.00;78001.63;5073891;28;19958;-68
2022/10/07 05:49:24;;;;;;;;;;;;;;;-142.75;100.00;78001.63;5075359;28;19966;-68
2022/10/07 05:51:50;;;;;;;;;;;;;;;-142.75;100.00;78003.59;5073840;28;19960;-67
2022/10/07 05:54:15;;;;;;;;;;;;;;;-142.75;100.00;77997.69;5075197;28;20388;-68
2022/10/07 05:56:40;;;;;;;;;;;;;;;-142.75;100.00;78007.53;5074840;28;19916;-67
2022/10/07 05:59:06;;;;;;;;;;;;;;;-142.75;100.00;78003.59;5075168;28;20313;-67
2022/10/07 06:01:31;;;;;;;;;;;;;;;-142.75;100.00;78003.59;5074833;28;19922;-69
2022/10/07 06:03:57;;;;;;;;;;;;;;;-142.75;100.00;78011.47;5075138;28;19948;-69
2022/10/07 06:06:23;;;;;;;;;;;;;;;-142.75;100.00;78011.47;5073638;28;19913;-68
2022/10/07 06:08:49;;;;;;;;;;;;;;;-142.75;100.00;78019.34;5074702;28;19921;-68
2022/10/07 06:13:59;;;;;;;;;;;;;;;-142.75;100.00;78003.59;5075156;28;19918;-67
2022/10/07 06:16:24;;;;;;;;;;;;;;;-142.75;100.00;77989.81;5074842;28;19921;-67
2022/10/07 06:18:51;;;;;;;;;;;;;;;-142.75;100.00;78003.59;5074546;28;20263;-68
2022/10/07 06:21:16;;;;;;;;;;;;;;;-142.75;100.00;77989.81;5074710;28;19920;-68
2022/10/07 06:23:42;;;;;;;;;;;;;;;-142.75;100.00;77987.84;5066633;28;19916;-68
2022/10/07 06:26:08;;;;;;;;;;;;;;;-142.75;100.00;77981.94;5070424;28;19935;-67
2022/10/07 06:28:35;;;;;;;;;;;;;;;-142.75;100.00;77964.22;5072477;28;20325;-67
2022/10/07 06:31:14;;;;;;;;;;;;;;;-142.75;100.00;77956.34;5072829;28;20354;-68
2022/10/07 06:33:39;;;;;;;;;;;;;;;-142.75;100.00;77948.47;5070308;28;19977;-68
2022/10/07 06:36:06;;;;;;;;;;;;;;;-142.75;100.00;77934.69;5074169;28;20373;-68
2022/10/07 06:38:31;;;;;;;;;;;;;;;-142.75;100.00;77915.00;5066706;28;19919;-67
2022/10/07 06:40:57;;;;;;;;;;;;;;;-142.75;100.00;77926.81;5071590;28;20062;-67
2022/10/07 06:43:24;;;;;;;;;;;;;;;-142.75;100.00;77936.66;5064626;28;19966;-68
2022/10/07 06:45:49;;;;;;;;;;;;;;;-142.75;100.00;77932.72;5072516;28;19991;-68
2022/10/07 06:48:14;;;;;;;;;;;;;;;-142.75;100.00;77928.78;5072129;28;20094;-67
2022/10/07 06:50:48;;;;;;;;;;;;;;;-142.75;100.00;77924.84;5069455;28;20279;-68
2022/10/07 06:53:13;;;;;;;;;;;;;;;-142.75;100.00;77928.78;5071462;28;19944;-68
2022/10/07 06:55:38;;;;;;;;;;;;;;;-142.75;100.00;77934.69;5067419;28;20373;-67
2022/10/07 06:58:03;;;;;;;;;;;;;;;-142.75;100.00;77924.84;5072817;28;19921;-67
2022/10/07 07:00:28;;;;;;;;;;;;;;;-142.75;100.00;77913.03;5068881;28;19962;-67
2022/10/07 07:02:54;;;;;;;;;;;;;;;-142.75;100.00;77891.34;5072013;28;19917;-68
2022/10/07 07:05:19;;;;;;;;;;;;;;;-142.75;100.00;77887.41;5071664;28;20396;-68
2022/10/07 07:07:44;;;;;;;;;;;;;;;-142.75;100.00;77893.31;5068347;28;19947;-67
2022/10/07 07:10:09;;;;;;;;;;;;;;;-142.75;100.00;77887.41;5071647;28;19955;-68
2022/10/07 07:12:35;;;;;;;;;;;;;;;-142.75;100.00;77877.56;5064361;28;19913;-68
2022/10/07 07:15:00;;;;;;;;;;;;;;;-142.75;100.00;77842.13;5068176;28;19986;-67
2022/10/07 07:17:25;;;;;;;;;;;;;;;-142.75;100.00;77787.00;5057720;28;19921;-66
2022/10/07 07:19:50;;;;;;;;;;;;;;;-142.75;100.00;77775.19;5056314;28;19919;-67
2022/10/07 07:22:15;;;;;;;;;;;;;;;-142.75;100.00;77775.19;5072847;28;19924;-67
2022/10/07 07:24:41;;;;;;;;;;;;;;;-142.75;100.00;77775.19;5061176;28;20003;-65
2022/10/07 07:27:06;;;;;;;;;;;;;;;-142.75;100.00;77751.56;5055113;28;19919;-68
2022/10/07 07:29:31;;;;;;;;;;;;;;;-142.75;100.00;77737.78;5062167;28;20015;-67
2022/10/07 07:31:58;;;;;;;;;;;;;;;-142.75;100.00;77723.97;5063308;28;19939;-68
2022/10/07 07:34:24;;;;;;;;;;;;;;;-142.75;100.00;77684.59;5071986;28;19966;-68
2022/10/07 07:36:52;;;;;;;;;;;;;;;-142.75;100.00;77688.53;5072147;28;19912;-67
2022/10/07 07:39:18;;;;;;;;;;;;;;;-142.75;100.00;77659.00;5072710;28;19947;-67
2022/10/07 07:41:49;;;;;;;;;;;;;;;-142.75;100.00;77633.41;5070007;28;19922;-68
2022/10/07 07:44:15;;;;;;;;;;;;;;;-142.75;100.00;77611.75;5071793;28;19917;-67
2022/10/07 07:46:42;;;;;;;;;;;;;;;-142.75;100.00;77603.88;5071479;28;19939;-68
2022/10/07 07:49:09;;;;;;;;;;;;;;;-142.75;100.00;77617.66;5071540;28;19921;-68
2022/10/07 07:51:35;;;;;;;;;;;;;;;-142.75;100.00;77611.75;5068154;28;19923;-68
2022/10/07 07:54:00;;;;;;;;;;;;;;;-142.75;100.00;77588.13;5069389;28;20301;-67
2022/10/07 07:56:28;;;;;;;;;;;;;;;-142.75;100.00;77572.38;5069210;28;19917;-67
2022/10/07 07:58:53;;;;;;;;;;;;;;;-142.75;100.00;77570.41;5069643;28;19925;-68
2022/10/07 08:01:18;;;;;;;;;;;;;;;-142.75;100.00;77576.31;5063325;28;20065;-67
2022/10/07 08:03:45;;;;;;;;;;;;;;;-142.75;100.00;77550.72;5063054;28;20045;-68
2022/10/07 08:06:12;;;;;;;;;;;;;;;-142.75;100.00;77554.66;5069517;28;19919;-67
2022/10/07 08:08:37;;;;;;;;;;;;;;;-142.75;100.00;77582.22;5070463;28;19923;-68
2022/10/07 08:11:09;;;;;;;;;;;;;;;-142.75;100.00;77566.47;5070494;28;19912;-68
2022/10/07 08:13:35;;;;;;;;;;;;;;;-142.75;100.00;77501.50;5069659;28;19920;-68
2022/10/07 08:16:02;;;;;;;;;;;;;;;-142.75;100.00;77471.97;5071779;28;20420;-65
2022/10/07 08:18:28;;;;;;;;;;;;;;;-142.75;100.00;77454.25;5068095;28;20468;-66
2022/10/07 08:20:57;;;;;;;;;;;;;;;-142.75;100.00;77426.66;5070520;28;19951;-69
2022/10/07 08:23:22;;;;;;;;;;;;;;;-142.75;100.00;77324.28;5072193;28;19919;-68
2022/10/07 08:25:52;;;;;;;;;;;;;;;-142.75;100.00;77359.72;5071760;28;19924;-68
2022/10/07 08:28:17;;;;;;;;;;;;;;;-142.75;100.00;77389.25;5070079;28;20374;-68
2022/10/07 08:30:45;;;;;;;;;;;;;;;-142.75;100.00;77357.75;5071906;28;19966;-69
2022/10/07 08:33:10;;;;;;;;;;;;;;;-142.75;100.00;77399.09;5070907;28;19918;-69
2022/10/07 08:35:35;;;;;;;;;;;;;;;-142.75;100.00;77385.31;5072080;28;19913;-69
2022/10/07 08:38:00;;;;;;;;;;;;;;;-142.75;100.00;77406.97;5071422;28;19917;-69
2022/10/07 08:40:25;;;;;;;;;;;;;;;-142.75;100.00;77406.97;5071425;28;20462;-68
2022/10/07 08:42:52;;;;;;;;;;;;;;;-142.75;100.00;77416.81;5070360;28;19977;-69
2022/10/07 08:45:25;;;;;;;;;;;;;;;-142.75;100.00;77430.59;5071572;28;19920;-68
2022/10/07 08:47:51;;;;;;;;;;;;;;;-142.75;100.00;77410.91;5071348;28;19913;-67
2022/10/07 08:50:22;;;;;;;;;;;;;;;-142.75;100.00;77444.38;5071572;28;20002;-67
2022/10/07 08:52:51;;;;;;;;;;;;;;;-142.75;100.00;77460.13;5068523;28;19923;-69
2022/10/07 08:55:17;;;;;;;;;;;;;;;-142.75;100.00;77450.28;5071369;28;19974;-68
2022/10/07 08:57:42;;;;;;;;;;;;;;;-142.75;100.00;77403.03;5071360;28;19919;-68
2022/10/07 09:00:10;;;;;;;;;;;;;;;-142.75;100.00;77306.56;5070435;28;19999;-69
2022/10/07 09:02:51;;;;;;;;;;;;;;;-142.75;100.00;77265.22;5070651;28;19916;-69
2022/10/07 09:05:19;;;;;;;;;;;;;;;-142.75;100.00;77265.22;5080338;28;19960;-69
2022/10/07 09:07:47;;;;;;;;;;;;;;;-142.75;100.00;77286.88;5066291;28;19920;-69
2022/10/07 09:10:31;;;;;;;;;;;;;;;-142.75;100.00;77282.94;5067277;28;19967;-69
2022/10/07 09:12:59;;;;;;;;;;;;;;;-142.75;100.00;77318.38;5072070;28;19916;-68
2022/10/07 09:15:43;;;;;;;;;;;;;;;-142.75;100.00;77312.47;5075244;28;19978;-69
2022/10/07 09:18:28;;;;;;;;;;;;;;;-142.75;100.00;77290.81;5074385;28;20374;-69
2022/10/07 09:20:54;;;;;;;;;;;;;;;-142.75;100.00;77231.75;5081424;28;19957;-69
2022/10/07 09:23:30;;;;;;;;;;;;;;;-142.75;100.00;77182.53;5086966;22;20473;-66
2022/10/07 09:25:55;;;;;;;;;;;;;;;-142.75;100.00;77133.31;5065403;28;19916;-65
2022/10/07 09:28:22;;;;;;;;;;;;;;;-142.75;100.00;77101.81;5066357;28;19927;-65
2022/10/07 09:30:48;;;;;;;;;;;;;;;-142.75;100.00;77082.13;5065807;28;19978;-65
2022/10/07 09:33:15;;;;;;;;;;;;;;;-142.75;100.00;77121.50;5069508;28;19912;-66
2022/10/07 09:35:41;;;;;;;;;;;;;;;-142.75;100.00;77137.25;5074455;28;19921;-66
2022/10/07 09:38:08;;;;;;;;;;;;;;;-142.75;100.00;77086.06;5073634;28;19912;-65
2022/10/07 09:41:14;;;;;;;;;;;;;;;-142.75;100.00;77030.94;5050520;28;19917;-66
2022/10/07 09:43:27;;;;;;;;;;;;;;;-142.75;100.00;77027.00;5065622;28;20038;-66
2022/10/07 09:45:54;;;;;;;;;;;;;;;-142.75;100.00;76991.56;5064855;28;19916;-65
2022/10/07 09:48:21;;;;;;;;;;;;;;;-142.75;100.00;77015.19;5067974;28;20374;-65
2022/10/07 09:50:46;;;;;;;;;;;;;;;-142.75;100.00;76971.88;5061359;28;19986;-65
2022/10/07 09:53:21;;;;;;;;;;;;;;;-142.75;100.00;76936.44;5064355;28;20345;-66
2022/10/07 09:55:47;;;;;;;;;;;;;;;-142.75;100.00;76889.19;5063850;28;20383;-65
2022/10/07 09:58:32;;;;;;;;;;;;;;;-142.75;100.00;76924.63;5064867;28;19959;-65
2022/10/07 10:00:58;;;;;;;;;;;;;;;-142.75;100.00;76875.41;5062725;28;20004;-65
2022/10/07 10:03:31;;;;;;;;;;;;;;;-142.75;100.00;76940.38;5063534;28;19975;-65
2022/10/07 10:06:04;;;;;;;;;;;;;;;-142.75;100.00;76902.97;5064512;28;19912;-65
2022/10/07 10:08:33;;;;;;;;;;;;;;;-142.75;100.00;76924.63;5034683;28;19917;-65
2022/10/07 10:11:00;;;;;;;;;;;;;;;-142.75;100.00;76962.03;5036095;28;20355;-65
2022/10/07 10:13:45;;;;;;;;;;;;;;;-142.75;100.00;76987.63;5064239;28;19913;-66
2022/10/07 10:16:23;;;;;;;;;;;;;;;-142.75;100.00;77032.91;5065666;28;20293;-66
2022/10/07 10:19:11;;;;;;;;;;;;;;;-142.75;100.00;77030.94;5046394;28;19916;-66
2022/10/07 10:21:40;;;;;;;;;;;;;;;-142.75;100.00;77054.56;5052903;28;19978;-65
2022/10/07 10:24:09;;;;;;;;;;;;;;;-142.75;100.00;77066.38;5064714;28;19923;-65
2022/10/07 10:26:41;;;;;;;;;;;;;;;-142.75;100.00;77097.88;5046253;28;19938;-66
2022/10/07 10:29:15;;;;;;;;;;;;;;;-142.75;100.00;77158.91;5066518;28;19920;-66
2022/10/07 10:31:40;;;;;;;;;;;;;;;-142.75;100.00;77156.94;5061271;28;20042;-66
2022/10/07 10:34:17;;;;;;;;;;;;;;;-142.75;100.00;77149.06;5064102;28;19943;-66
2022/10/07 10:36:45;;;;;;;;;;;;;;;-142.75;100.00;77141.19;5061972;28;19912;-65
2022/10/07 10:39:25;;;;;;;;;;;;;;;-142.75;100.00;77151.03;5063175;28;19920;-66
2022/10/07 10:41:59;;;;;;;;;;;;;;;-142.75;100.00;77156.94;5063853;28;19940;-65
2022/10/07 10:44:50;;;;;;;;;;;;;;;-142.75;100.00;77172.69;5062282;28;20289;-65
2022/10/07 10:47:21;;;;;;;;;;;;;;;-142.75;100.00;77176.63;5064473;28;19918;-66
2022/10/07 10:49:54;;;;;;;;;;;;;;;-142.75;100.00;77158.91;5046086;28;19916;-68
2022/10/07 10:52:33;;;;;;;;;;;;;;;-142.75;100.00;77147.09;5074492;28;20361;-65
2022/10/07 10:55:11;;;;;;;;;;;;;;;-142.75;100.00;77164.81;5064339;28;19924;-66
2022/10/07 10:57:55;;;;;;;;;;;;;;;-142.75;100.00;77156.94;5048461;28;19917;-68
2022/10/07 11:00:21;;;;;;;;;;;;;;;-142.75;100.00;77162.84;5053976;28;19960;-69
2022/10/07 11:03:05;;;;;;;;;;;;;;;-142.75;100.00;77151.03;5053615;28;19913;-69
2022/10/07 11:05:33;;;;;;;;;;;;;;;-142.75;100.00;77164.81;5053862;28;19966;-69
2022/10/07 11:08:11;;;;;;;;;;;;;;;-142.75;100.00;77174.66;5053473;28;19913;-69
2022/10/07 11:10:43;;;;;;;;;;;;;;;-142.75;100.00;77178.59;5034787;28;20251;-69
2022/10/07 11:13:11;;;;;;;;;;;;;;;-142.75;100.00;77141.19;5035633;28;20379;-69
2022/10/07 11:15:46;;;;;;;;;;;;;;;-142.75;100.00;77121.50;5053669;28;20294;-69
2022/10/07 11:18:16;;;;;;;;;;;;;;;-142.75;100.00;77099.84;5053273;28;19920;-69
2022/10/07 11:20:46;;;;;;;;;;;;;;;-142.75;100.00;77119.53;5053560;28;19939;-69
2022/10/07 11:23:14;;;;;;;;;;;;;;;-142.75;100.00;77088.03;5053403;28;19917;-69
2022/10/07 11:25:43;;;;;;;;;;;;;;;-142.75;100.00;77095.91;5052796;28;19912;-70
2022/10/07 11:28:23;;;;;;;;;;;;;;;-142.75;100.00;77080.16;5035236;28;20319;-69
2022/10/07 11:31:04;;;;;;;;;;;;;;;-142.75;100.00;77060.47;5053426;28;19924;-69
2022/10/07 11:33:36;;;;;;;;;;;;;;;-142.75;100.00;77056.53;5053121;28;19919;-69
2022/10/07 11:36:07;;;;;;;;;;;;;;;-142.75;100.00;77054.56;5053211;28;20370;-69
2022/10/07 11:38:35;;;;;;;;;;;;;;;-142.75;100.00;77028.97;5052955;28;19913;-69
2022/10/07 11:41:13;;;;;;;;;;;;;;;-142.75;100.00;77034.88;5053171;28;20003;-69
2022/10/07 11:43:54;;;;;;;;;;;;;;;-142.75;100.00;77011.25;5053105;28;20078;-69
2022/10/07 11:46:25;;;;;;;;;;;;;;;-142.75;100.00;76985.66;5053155;28;19999;-69
2022/10/07 11:48:59;;;;;;;;;;;;;;;-142.75;100.00;76979.75;5052644;28;20449;-69
2022/10/07 11:51:30;;;;;;;;;;;;;;;-142.75;100.00;76958.09;5053052;28;20260;-69
2022/10/07 11:53:59;;;;;;;;;;;;;;;-142.75;100.00;76971.88;5052990;28;19920;-67
2022/10/07 11:56:26;;;;;;;;;;;;;;;-142.75;100.00;76977.78;5052871;28;19920;-67
2022/10/07 11:58:56;;;;;;;;;;;;;;;-142.75;100.00;76987.63;5052685;28;19924;-67
2022/10/07 12:01:24;;;;;;;;;;;;;;;-142.75;100.00;77017.16;5052889;28;20282;-67
2022/10/07 12:03:51;;;;;;;;;;;;;;;-142.75;100.00;77017.16;5052627;28;19935;-67
2022/10/07 12:06:16;;;;;;;;;;;;;;;-142.75;100.00;76989.59;5052688;28;20306;-67
2022/10/07 12:08:42;;;;;;;;;;;;;;;-142.75;100.00;76964.00;5052304;28;19916;-65
2022/10/07 12:11:14;;;;;;;;;;;;;;;-142.75;100.00;76964.00;5052491;28;19917;-65
2022/10/07 12:13:52;;;;;;;;;;;;;;;-142.75;100.00;76958.09;5059793;28;19920;-66
2022/10/07 12:16:20;;;;;;;;;;;;;;;-142.75;100.00;76977.78;5053647;28;19916;-66
2022/10/07 12:19:06;;;;;;;;;;;;;;;-142.75;100.00;76979.75;5052409;28;20007;-66
2022/10/07 12:21:58;;;;;;;;;;;;;;;-142.75;100.00;76960.06;5054997;28;20022;-66
2022/10/07 12:24:23;;;;;;;;;;;;;;;-142.75;100.00;76940.38;5049125;28;19924;-67
2022/10/07 12:26:49;;;;;;;;;;;;;;;-142.75;100.00;76934.47;5057573;28;19913;-66